Time;durP1;ratioP1;P1;durP2;ratioP2;P2;SDS_P1;SDS_P2;PMS_P1;PMS_P2;Temp;Humidity;BMP_temperature;BMP_pressure;BME280_temperature;BME280_humidity;BME280_pressure;Samples;Min_cycle;Max_cycle;Signal;HPM_P1;HPM_P2
2021/03/20 00:02:07;;;;;;;7.72;3.83;;;;;;;21.88;37.68;156886.91;1725308;82;21239;-80
2021/03/20 00:04:40;;;;;;;7.05;3.72;;;;;;;21.88;37.86;156888.25;1730794;82;21310;-80
2021/03/20 00:07:12;;;;;;;6.28;4.00;;;;;;;21.90;37.58;156893.56;1702825;83;21310;-79
2021/03/20 00:09:52;;;;;;;5.58;3.72;;;;;;;21.90;37.15;156893.56;1732545;82;21260;-79
2021/03/20 00:12:21;;;;;;;9.73;4.15;;;;;;;21.90;37.73;156892.22;1739151;81;21186;-79
2021/03/20 00:14:53;;;;;;;7.97;4.12;;;;;;;21.71;37.33;156840.58;1725341;82;21237;-79
2021/03/20 00:17:26;;;;;;;7.80;4.37;;;;;;;21.67;37.93;156831.33;1708988;82;21199;-79
2021/03/20 00:19:59;;;;;;;10.88;4.30;;;;;;;21.68;37.28;156832.67;1734924;82;21811;-79
2021/03/20 00:22:32;;;;;;;13.28;4.70;;;;;;;21.69;37.19;156836.63;1741862;81;21375;-79
2021/03/20 00:25:07;;;;;;;9.55;4.37;;;;;;;21.63;36.88;156820.77;1733707;82;21178;-79
2021/03/20 00:27:40;;;;;;;14.78;4.62;;;;;;;21.56;37.23;156800.86;1732059;83;21764;-79
2021/03/20 00:30:13;;;;;;;13.75;4.67;;;;;;;21.58;37.16;156807.50;1725408;83;21734;-80
2021/03/20 00:32:45;;;;;;;14.63;5.30;;;;;;;21.61;37.30;156815.47;1726453;82;21365;-79
2021/03/20 00:35:19;;;;;;;21.00;6.03;;;;;;;21.65;37.20;156826.02;1728508;82;21172;-79
2021/03/20 00:37:52;;;;;;;18.32;4.80;;;;;;;21.68;36.89;156833.97;1728379;82;21318;-79
2021/03/20 00:40:28;;;;;;;16.67;5.70;;;;;;;21.66;36.91;156828.67;1728352;83;21377;-79
2021/03/20 00:43:01;;;;;;;18.00;5.50;;;;;;;21.60;36.85;156812.81;1712708;82;21160;-80
2021/03/20 00:45:33;;;;;;;22.02;7.03;;;;;;;21.57;36.82;156804.86;1739423;82;21363;-79
2021/03/20 00:48:17;;;;;;;20.02;5.00;;;;;;;21.54;37.08;156796.84;1732862;82;21187;-80
2021/03/20 00:50:50;;;;;;;13.28;5.10;;;;;;;21.50;37.11;156784.95;1730489;82;21337;-79
2021/03/20 00:53:23;;;;;;;10.78;4.75;;;;;;;21.52;37.27;156790.25;1718139;82;21372;-80
2021/03/20 00:55:56;;;;;;;9.25;4.42;;;;;;;21.59;36.92;156810.16;1731331;81;21697;-79
2021/03/20 00:58:38;;;;;;;9.00;4.15;;;;;;;21.61;36.99;156815.47;1734979;81;21724;-79
2021/03/20 01:01:15;;;;;;;8.65;4.47;;;;;;;21.66;37.10;156827.38;1731124;82;21795;-79
2021/03/20 01:03:49;;;;;;;7.53;3.95;;;;;;;21.71;37.08;156841.94;1742372;82;21667;-79
2021/03/20 01:06:26;;;;;;;9.55;4.15;;;;;;;21.76;36.72;156853.84;1723298;82;21334;-80
2021/03/20 01:08:59;;;;;;;8.48;4.42;;;;;;;21.78;36.75;156860.44;1739715;80;21351;-80
2021/03/20 01:11:32;;;;;;;7.92;4.28;;;;;;;21.81;36.58;156868.39;1739787;82;21217;-80
2021/03/20 01:14:05;;;;;;;10.63;4.83;;;;;;;21.92;36.70;156897.52;1734436;83;21716;-79
2021/03/20 01:16:39;;;;;;;9.15;4.40;;;;;;;21.93;36.79;156900.16;1723842;82;21660;-79
2021/03/20 01:19:12;;;;;;;8.08;4.28;;;;;;;21.92;36.84;156898.86;1742924;82;21323;-79
2021/03/20 01:21:46;;;;;;;8.68;4.60;;;;;;;22.02;36.89;156923.98;1743322;82;21335;-80
2021/03/20 01:24:18;;;;;;;7.72;4.37;;;;;;;22.10;36.63;156946.50;1734788;82;21222;-79
2021/03/20 01:26:51;;;;;;;8.85;4.55;;;;;;;22.13;36.46;156953.11;1747534;80;21331;-79
2021/03/20 01:29:24;;;;;;;9.68;4.50;;;;;;;22.13;36.65;156954.47;1742725;82;21800;-80
2021/03/20 01:31:56;;;;;;;11.10;5.42;;;;;;;22.12;36.46;156950.45;1739832;81;21232;-80
2021/03/20 01:34:29;;;;;;;11.12;5.42;;;;;;;22.10;36.55;156946.50;1734894;81;21661;-80
2021/03/20 01:37:02;;;;;;;15.95;5.85;;;;;;;22.11;36.55;156949.16;1725194;81;21225;-80
2021/03/20 01:39:36;;;;;;;12.95;6.00;;;;;;;22.11;36.52;156949.16;1711920;83;21369;-80
2021/03/20 01:42:10;;;;;;;14.03;6.30;;;;;;;22.11;36.60;156949.16;1718251;82;21837;-80
2021/03/20 01:44:42;;;;;;;13.85;6.35;;;;;;;22.13;36.69;156953.11;1740992;80;21331;-80
2021/03/20 01:47:16;;;;;;;18.25;6.55;;;;;;;22.18;36.68;156967.67;1742361;82;21329;-80
2021/03/20 01:49:49;;;;;;;12.93;6.10;;;;;;;22.30;36.82;156998.16;1735961;82;21931;-80
2021/03/20 01:52:31;;;;;;;12.20;5.75;;;;;;;22.36;36.72;157014.06;1730475;81;21309;-79
2021/03/20 01:55:12;;;;;;;11.38;6.10;;;;;;;22.44;36.58;157035.30;1723083;82;21400;-79
2021/03/20 01:57:52;;;;;;;12.37;5.87;;;;;;;22.40;36.55;157024.69;1721951;83;21823;-80
2021/03/20 02:00:35;;;;;;;11.73;5.47;;;;;;;22.34;36.48;157010.13;1728049;81;21171;-79
2021/03/20 02:03:12;;;;;;;9.48;4.35;;;;;;;22.30;36.31;156998.16;1705528;84;21341;-79
2021/03/20 02:05:46;;;;;;;10.48;4.92;;;;;;;22.31;35.94;157000.81;1716324;83;21301;-80
2021/03/20 02:08:19;;;;;;;9.98;4.97;;;;;;;22.23;35.59;156980.94;1732451;83;21820;-80
2021/03/20 02:10:51;;;;;;;7.08;4.37;;;;;;;22.14;35.74;156955.77;1734836;81;21157;-80
2021/03/20 02:13:43;;;;;;;8.08;4.25;;;;;;;22.14;35.65;156957.11;1729617;83;21167;-80
2021/03/20 02:16:32;;;;;;;8.13;4.40;;;;;;;22.11;35.55;156947.81;1703139;84;21226;-80
2021/03/20 02:19:41;;;;;;;7.70;5.05;;;;;;;22.06;35.37;156935.89;1707714;83;21336;-79
2021/03/20 02:22:42;;;;;;;7.35;4.60;;;;;;;22.02;35.64;156925.34;1733780;82;21177;-79
2021/03/20 02:25:36;;;;;;;7.45;4.33;;;;;;;22.06;35.79;156934.59;1722759;82;21157;-80
2021/03/20 02:28:51;;;;;;;7.03;4.80;;;;;;;22.10;36.37;156946.50;1748201;82;21307;-79
2021/03/20 02:31:37;;;;;;;9.85;5.10;;;;;;;22.17;36.47;156965.03;1663722;85;21169;-79
2021/03/20 02:34:20;;;;;;;10.32;6.47;;;;;;;22.18;36.46;156967.67;1729021;82;21722;-80
2021/03/20 02:37:16;;;;;;;9.85;6.03;;;;;;;22.16;36.05;156962.38;1706553;82;21747;-80
2021/03/20 02:40:04;;;;;;;9.53;5.53;;;;;;;22.17;35.80;156965.03;1720800;83;21202;-80
2021/03/20 02:42:46;;;;;;;10.32;5.90;;;;;;;22.22;35.91;156976.98;1735284;83;21185;-80
2021/03/20 02:45:36;;;;;;;10.78;4.95;;;;;;;22.24;35.80;156982.23;1722656;83;21357;-80
2021/03/20 02:48:31;;;;;;;9.90;5.47;;;;;;;22.20;35.80;156972.98;1732639;83;21170;-80
2021/03/20 02:51:32;;;;;;;9.10;5.30;;;;;;;22.39;35.75;157022.03;1726451;82;21372;-80
2021/03/20 02:54:19;;;;;;;9.50;5.25;;;;;;;22.39;35.63;157022.03;1730414;82;21262;-80
2021/03/20 02:56:56;;;;;;;8.38;4.70;;;;;;;22.43;35.64;157032.64;1740798;82;21317;-81
2021/03/20 02:59:33;;;;;;;9.75;5.20;;;;;;;22.46;35.45;157041.91;1741036;82;21167;-80
2021/03/20 03:02:09;;;;;;;9.88;5.22;;;;;;;22.42;35.68;157030.00;1740178;82;21172;-80
2021/03/20 03:04:50;;;;;;;9.85;5.83;;;;;;;22.48;35.62;157045.86;1728748;82;21358;-79
2021/03/20 03:07:39;;;;;;;10.85;5.17;;;;;;;22.57;35.17;157071.03;1731130;82;21378;-80
2021/03/20 03:10:19;;;;;;;9.08;5.33;;;;;;;22.54;35.17;157063.08;1715246;83;21172;-80
2021/03/20 03:13:03;;;;;;;12.47;6.67;;;;;;;22.49;35.41;157049.86;1720662;82;21155;-80
2021/03/20 03:15:42;;;;;;;10.75;5.55;;;;;;;22.53;35.31;157060.42;1710443;84;21332;-80
2021/03/20 03:18:25;;;;;;;10.98;6.33;;;;;;;22.54;35.10;157061.78;1712819;82;21660;-80
2021/03/20 03:21:02;;;;;;;9.85;5.58;;;;;;;22.54;34.80;157061.78;1728385;83;21845;-80
2021/03/20 03:23:38;;;;;;;10.90;6.08;;;;;;;22.49;34.76;157048.52;1734720;82;21177;-80
2021/03/20 03:26:15;;;;;;;12.55;6.40;;;;;;;23.32;34.04;157271.16;1741233;81;21137;-79
2021/03/20 03:28:52;;;;;;;12.00;6.05;;;;;;;23.81;33.02;157401.13;1741899;82;21323;-80
2021/03/20 03:31:54;;;;;;;15.05;5.87;;;;;;;23.71;33.04;157375.88;1735013;82;21306;-79
2021/03/20 03:34:34;;;;;;;11.97;5.47;;;;;;;23.68;32.95;157367.91;1709067;82;21336;-79
2021/03/20 03:37:24;;;;;;;10.88;6.12;;;;;;;23.64;33.05;157354.67;1730657;82;21194;-79
2021/03/20 03:39:59;;;;;;;11.28;5.05;;;;;;;23.53;33.16;157326.81;1729312;83;21837;-79
2021/03/20 03:42:34;;;;;;;11.95;5.70;;;;;;;23.42;33.13;157297.66;1728396;83;21425;-79
2021/03/20 03:45:12;;;;;;;13.53;5.30;;;;;;;23.36;33.30;157281.78;1734833;82;21388;-80
2021/03/20 03:47:47;;;;;;;16.55;5.80;;;;;;;23.38;33.20;157285.73;1713544;82;21329;-79
2021/03/20 03:50:27;;;;;;;9.20;5.62;;;;;;;23.37;33.42;157283.08;1734624;81;21173;-80
2021/03/20 03:52:59;;;;;;;8.30;4.50;;;;;;;23.45;33.16;157304.27;1731958;82;21720;-79
2021/03/20 03:55:32;;;;;;;10.50;5.10;;;;;;;23.45;33.09;157305.63;1712218;81;21359;-79
2021/03/20 03:58:24;;;;;;;9.93;5.58;;;;;;;23.43;33.11;157300.31;1732390;83;21348;-79
2021/03/20 04:01:30;;;;;;;10.68;5.03;;;;;;;23.42;33.16;157296.36;1729801;82;21207;-79
2021/03/20 04:04:26;;;;;;;8.20;4.17;;;;;;;23.40;33.18;157291.05;1709911;82;21313;-79
2021/03/20 04:07:09;;;;;;;8.28;4.78;;;;;;;23.41;33.18;157293.70;1727667;82;21853;-79
2021/03/20 04:09:52;;;;;;;9.03;4.55;;;;;;;23.44;33.20;157301.63;1707757;84;21325;-79
2021/03/20 04:12:52;;;;;;;9.50;4.12;;;;;;;23.47;33.17;157309.58;1707950;84;21849;-79
2021/03/20 04:15:59;;;;;;;7.17;4.08;;;;;;;23.51;33.04;157321.50;1722445;82;21219;-79
2021/03/20 04:19:00;;;;;;;9.18;4.22;;;;;;;23.49;32.90;157316.25;1739111;82;21335;-79
2021/03/20 04:21:41;;;;;;;;;;;;;;;23.48;32.89;157313.59;1742524;82;21161;-80
2021/03/20 04:24:48;;;;;;;14.50;5.10;;;;;;;23.39;33.00;157289.69;1725577;82;20609;-80
2021/03/20 04:27:28;;;;;;;10.63;6.08;;;;;;;23.36;33.01;157281.78;1707610;84;21325;-81
2021/03/20 04:30:18;;;;;;;12.03;6.40;;;;;;;23.30;33.13;157265.84;1728369;82;21309;-81
2021/03/20 04:33:00;;;;;;;10.58;5.72;;;;;;;23.27;33.13;157256.58;1737145;82;21179;-81
2021/03/20 04:35:50;;;;;;;9.58;5.45;;;;;;;23.40;32.85;157292.34;1735114;82;21329;-80
2021/03/20 04:38:22;;;;;;;8.73;5.08;;;;;;;23.16;33.06;157228.73;1737160;82;21199;-80
2021/03/20 04:40:59;;;;;;;8.03;4.60;;;;;;;23.13;33.39;157219.47;1735846;82;21236;-83
2021/03/20 04:43:32;;;;;;;9.50;4.67;;;;;;;23.17;33.40;157231.38;1737114;82;21228;-80
2021/03/20 04:46:18;;;;;;;7.95;5.20;;;;;;;23.15;33.28;157226.08;1735844;82;21308;-80
2021/03/20 04:49:15;;;;;;;10.35;5.15;;;;;;;23.20;33.31;157238.05;1741907;82;21166;-79
2021/03/20 04:51:52;;;;;;;8.78;5.15;;;;;;;23.22;33.33;157243.31;1738023;81;21364;-79
2021/03/20 04:54:25;;;;;;;7.22;4.60;;;;;;;23.43;32.99;157299.00;1709388;83;21346;-79
2021/03/20 04:57:18;;;;;;;10.15;4.65;;;;;;;23.45;32.80;157304.27;1647910;86;21178;-79
2021/03/20 05:00:05;;;;;;;7.58;4.58;;;;;;;23.49;32.81;157316.25;1675878;84;21237;-79
2021/03/20 05:03:21;;;;;;;7.65;4.65;;;;;;;23.07;33.22;157204.89;1700043;83;21174;-79
2021/03/20 05:05:58;;;;;;;7.17;4.25;;;;;;;22.91;33.45;157161.12;1723000;83;21182;-80
2021/03/20 05:08:39;;;;;;;7.08;4.65;;;;;;;22.95;33.51;157173.03;1709015;83;21420;-79
2021/03/20 05:11:20;;;;;;;8.08;4.08;;;;;;;22.89;33.61;157157.16;1704398;83;21317;-79
2021/03/20 05:14:07;;;;;;;6.58;4.30;;;;;;;23.00;33.62;157186.31;1697644;83;21375;-81
2021/03/20 05:16:47;;;;;;;8.30;5.33;;;;;;;23.11;33.57;157215.50;1687847;83;21194;-78
2021/03/20 05:19:21;;;;;;;7.85;5.03;;;;;;;23.27;33.40;157257.88;1700650;84;21845;-79
2021/03/20 05:21:55;;;;;;;8.28;5.28;;;;;;;23.35;33.31;157279.13;1707710;84;21253;-80
2021/03/20 05:24:36;;;;;;;8.90;5.15;;;;;;;23.47;33.21;157310.94;1707694;84;21174;-79
2021/03/20 05:27:11;;;;;;;9.60;6.15;;;;;;;23.59;33.07;157342.75;1707830;84;21182;-79
2021/03/20 05:29:43;;;;;;;11.50;6.47;;;;;;;23.66;32.99;157361.30;1707476;84;21344;-80
2021/03/20 05:32:19;;;;;;;10.23;6.45;;;;;;;23.68;32.96;157365.25;1705289;83;21309;-79
2021/03/20 05:34:53;;;;;;;15.78;8.93;;;;;;;23.72;33.04;157377.22;1681356;83;21201;-78
2021/03/20 05:37:32;;;;;;;14.00;7.78;;;;;;;23.81;32.76;157401.13;1650584;84;21244;-80
2021/03/20 05:40:17;;;;;;;10.55;6.72;;;;;;;23.76;32.87;157387.84;1639442;85;21707;-81
2021/03/20 05:43:28;;;;;;;9.53;5.83;;;;;;;23.81;32.69;157401.13;1644115;86;21216;-85
2021/03/20 05:46:34;;;;;;;8.68;5.15;;;;;;;23.89;32.56;157423.69;1650419;84;21308;-81
2021/03/20 05:49:38;;;;;;;7.78;4.03;;;;;;;23.98;32.18;157446.19;1638433;85;21186;-90
2021/03/20 05:52:30;;;;;;;8.73;5.42;;;;;;;23.88;31.97;157419.67;1599957;86;21267;-80
2021/03/20 05:55:33;;;;;;;8.80;4.42;;;;;;;23.85;31.80;157411.70;1639993;85;21252;-83
2021/03/20 05:58:32;;;;;;;9.20;5.58;;;;;;;23.63;31.98;157353.31;1649825;84;21368;-84
2021/03/20 06:01:22;;;;;;;7.90;4.70;;;;;;;23.42;32.16;157297.66;1664138;85;21369;-82
2021/03/20 06:04:29;;;;;;;11.35;4.67;;;;;;;23.19;32.28;157236.69;1649169;84;21377;-79
2021/03/20 06:07:28;;;;;;;7.37;4.45;;;;;;;23.24;31.98;157248.61;1667416;83;21247;-75
2021/03/20 06:10:43;;;;;;;9.25;4.47;;;;;;;23.07;32.08;157203.59;1634373;85;21186;-79
2021/03/20 06:13:39;;;;;;;10.15;5.97;;;;;;;23.05;32.30;157199.58;1674527;84;21398;-85
2021/03/20 06:16:33;;;;;;;10.35;5.28;;;;;;;23.25;31.90;157251.27;1714008;81;21348;-81
2021/03/20 06:19:35;;;;;;;8.05;4.05;;;;;;;23.33;31.85;157273.81;1717442;81;21356;-81
2021/03/20 06:22:32;;;;;;;;;;;;;;;23.28;31.81;157260.53;1716080;81;21341;-80
2021/03/20 06:25:59;;;;;;;7.87;4.35;;;;;;;23.27;31.82;157257.88;1717327;82;20253;-79
2021/03/20 06:28:36;;;;;;;6.37;3.90;;;;;;;23.30;31.69;157264.55;1712038;82;21856;-88
2021/03/20 06:31:20;;;;;;;8.10;4.40;;;;;;;23.26;31.87;157253.92;1710495;82;21322;-81
2021/03/20 06:34:02;;;;;;;10.15;4.22;;;;;;;23.39;31.74;157288.39;1683177;83;21716;-82
2021/03/20 06:36:39;;;;;;;7.97;4.28;;;;;;;23.54;31.55;157328.17;1657437;84;21363;-81
2021/03/20 06:39:28;;;;;;;8.53;4.17;;;;;;;23.53;31.39;157326.81;1649237;84;21351;-82
2021/03/20 06:42:20;;;;;;;7.65;4.22;;;;;;;23.41;31.63;157293.70;1666400;83;21414;-80
2021/03/20 06:45:10;;;;;;;7.37;4.17;;;;;;;23.49;31.85;157314.89;1669224;83;21232;-80
2021/03/20 06:47:49;;;;;;;6.62;3.95;;;;;;;23.67;31.74;157362.64;1663016;83;21378;-82
2021/03/20 06:50:33;;;;;;;7.37;4.05;;;;;;;23.94;31.60;157435.61;1647454;85;21338;-80
2021/03/20 06:53:08;;;;;;;7.55;5.05;;;;;;;23.87;31.52;157417.02;1661966;83;21338;-80
2021/03/20 06:55:47;;;;;;;11.97;5.22;;;;;;;24.14;31.30;157488.64;1673449;83;21235;-81
2021/03/20 06:58:30;;;;;;;10.43;5.65;;;;;;;24.74;30.89;157649.19;1645577;84;21366;-85
2021/03/20 07:01:16;;;;;;;12.30;5.70;;;;;;;24.97;30.46;157711.58;1657148;85;21204;-80
2021/03/20 07:04:06;;;;;;;11.05;5.17;;;;;;;25.12;30.13;157751.41;1656757;85;21220;-81
2021/03/20 07:06:57;;;;;;;7.90;4.47;;;;;;;25.26;29.87;157787.28;1636277;85;21218;-79
2021/03/20 07:09:30;;;;;;;9.43;4.70;;;;;;;25.31;29.92;157801.87;1644822;86;21205;-82
2021/03/20 07:12:13;;;;;;;9.13;4.42;;;;;;;25.44;29.70;157836.41;1649390;86;21224;-78
2021/03/20 07:14:52;;;;;;;6.45;3.60;;;;;;;25.57;29.63;157869.56;1648661;86;21284;-89
2021/03/20 07:17:32;;;;;;;8.03;4.17;;;;;;;25.72;29.54;157912.08;1657902;84;21252;-79
2021/03/20 07:20:15;;;;;;;10.65;4.90;;;;;;;26.00;29.35;157985.16;1652229;84;21215;-84
2021/03/20 07:22:51;;;;;;;14.87;5.50;;;;;;;26.21;29.44;158040.94;1711021;81;21412;-81
2021/03/20 07:25:34;;;;;;;15.28;5.67;;;;;;;25.96;29.56;157975.88;1710785;81;21317;-83
2021/03/20 07:28:24;;;;;;;13.05;5.50;;;;;;;26.14;29.33;158022.36;1713991;81;21392;-80
2021/03/20 07:31:07;;;;;;;15.28;5.05;;;;;;;26.50;28.91;158119.38;1673960;84;21794;-80
2021/03/20 07:33:47;;;;;;;16.12;5.37;;;;;;;26.66;28.85;158161.92;1652923;84;21220;-83
2021/03/20 07:36:34;;;;;;;14.68;5.05;;;;;;;26.78;28.64;158193.81;1712384;81;21159;-82
2021/03/20 07:39:24;;;;;;;11.03;3.83;;;;;;;26.94;28.35;158237.67;1713075;81;21730;-83
2021/03/20 07:42:03;;;;;;;10.53;4.05;;;;;;;26.48;28.47;158114.06;1696309;82;21202;-80
2021/03/20 07:44:56;;;;;;;7.33;3.77;;;;;;;26.36;28.73;158080.81;1711378;81;21340;-81
2021/03/20 07:47:37;;;;;;;9.73;3.60;;;;;;;26.33;28.71;158072.83;1677401;84;21350;-81
2021/03/20 07:50:24;;;;;;;10.58;3.75;;;;;;;26.42;28.16;158096.78;1644238;85;22174;-84
2021/03/20 07:53:13;;;;;;;5.95;3.58;;;;;;;26.40;28.08;158092.77;1650219;84;21255;-82
2021/03/20 07:55:57;;;;;;;7.17;3.20;;;;;;;26.63;28.39;158155.25;1649699;84;21211;-81
2021/03/20 07:58:48;;;;;;;6.28;3.15;;;;;;;26.76;28.04;158189.80;1710348;81;21848;-83
2021/03/20 08:01:25;;;;;;;5.20;3.15;;;;;;;26.70;27.94;158172.52;1709765;82;21864;-82
2021/03/20 08:04:08;;;;;;;5.87;2.90;;;;;;;26.88;27.99;158220.39;1690203;82;21175;-81
2021/03/20 08:06:49;;;;;;;7.12;3.50;;;;;;;26.91;28.23;158228.33;1698364;83;21244;-80
2021/03/20 08:09:25;;;;;;;10.05;4.62;;;;;;;27.14;28.07;158290.88;1689626;85;21338;-83
2021/03/20 08:12:03;;;;;;;8.13;3.75;;;;;;;27.24;28.30;158317.45;1689865;85;21739;-82
2021/03/20 08:14:49;;;;;;;6.35;3.47;;;;;;;27.30;28.04;158332.08;1689652;85;21186;-81
2021/03/20 08:17:22;;;;;;;4.17;2.55;;;;;;;27.47;27.60;158378.61;1689137;85;21380;-82
2021/03/20 08:19:55;;;;;;;6.03;3.40;;;;;;;27.51;27.71;158390.58;1680950;85;21300;-82
2021/03/20 08:23:02;;;;;;;5.90;3.15;;;;;;;27.59;27.80;158411.89;1678505;85;21215;-82
2021/03/20 08:25:57;;;;;;;6.03;2.80;;;;;;;27.52;27.53;158391.94;1678482;85;21290;-83
2021/03/20 08:28:43;;;;;;;6.83;3.02;;;;;;;27.50;27.66;158387.91;1678641;85;21255;-82
2021/03/20 08:31:38;;;;;;;8.13;3.33;;;;;;;27.70;27.75;158439.83;1678493;85;21207;-82
2021/03/20 08:34:53;;;;;;;7.72;3.72;;;;;;;27.89;26.54;158491.72;1658249;85;21229;-83
2021/03/20 08:38:05;;;;;;;13.80;4.05;;;;;;;27.89;26.74;158490.41;1678464;85;21183;-83
2021/03/20 08:41:08;;;;;;;17.55;3.90;;;;;;;28.28;26.78;158594.19;1678335;85;21202;-82
2021/03/20 08:43:57;;;;;;;11.65;4.42;;;;;;;28.35;26.22;158614.16;1678003;85;21713;-82
2021/03/20 08:46:56;;;;;;;10.23;3.98;;;;;;;28.13;25.78;158554.22;1678393;85;21246;-82
2021/03/20 08:49:59;;;;;;;9.68;3.52;;;;;;;28.18;25.73;158568.84;1657077;85;21207;-82
2021/03/20 08:52:58;;;;;;;;;;;;;;;28.98;25.14;158783.22;1672200;85;21183;-82
2021/03/20 08:55:56;;;;;;;10.30;3.50;;;;;;;29.90;25.75;159028.30;1678494;85;20264;-84
2021/03/20 08:58:51;;;;;;;7.40;3.55;;;;;;;30.25;24.92;159122.97;1678507;85;21258;-83
2021/03/20 09:01:39;;;;;;;11.05;3.90;;;;;;;29.96;24.18;159044.36;1678495;85;21210;-82
2021/03/20 09:04:21;;;;;;;11.85;4.50;;;;;;;30.24;24.71;159118.94;1678459;85;21207;-82
2021/03/20 09:07:01;;;;;;;6.42;3.37;;;;;;;31.47;23.74;159449.66;1678432;85;21186;-82
2021/03/20 09:09:52;;;;;;;9.75;3.20;;;;;;;31.75;23.46;159525.73;1725509;81;21211;-81
2021/03/20 09:12:39;;;;;;;;;;;;;;;31.71;23.20;159513.73;1715583;81;21376;-83
2021/03/20 09:15:28;;;;;;;10.15;3.45;;;;;;;32.85;22.17;159819.37;1717697;82;20542;-76
2021/03/20 09:18:03;;;;;;;7.05;2.92;;;;;;;32.84;22.74;159816.72;1715998;82;21187;-82
2021/03/20 09:20:55;;;;;;;4.55;2.45;;;;;;;33.86;21.90;160091.91;1709180;83;21270;-82
2021/03/20 09:23:35;;;;;;;6.62;3.50;;;;;;;33.47;21.71;159986.33;1712785;81;21187;-80
2021/03/20 09:26:13;;;;;;;5.58;2.52;;;;;;;33.04;21.94;159871.45;1680858;83;21826;-82
2021/03/20 09:29:00;;;;;;;4.15;2.33;;;;;;;33.46;20.92;159983.66;1671780;83;21210;-82
2021/03/20 09:31:38;;;;;;;3.58;2.70;;;;;;;33.92;21.00;160106.59;1657447;85;21277;-81
2021/03/20 09:34:37;;;;;;;4.10;2.33;;;;;;;34.35;20.24;160222.91;1658659;85;21204;-76
2021/03/20 09:37:15;;;;;;;4.70;2.90;;;;;;;34.10;20.34;160156.08;1656360;85;21786;-80
2021/03/20 09:39:50;;;;;;;3.58;2.20;;;;;;;33.40;19.72;159967.66;1668413;84;21223;-79
2021/03/20 09:42:30;;;;;;;2.35;1.62;;;;;;;32.41;19.93;159703.19;1659880;85;21295;-81
2021/03/20 09:45:14;;;;;;;4.15;1.80;;;;;;;31.76;20.34;159528.41;1657894;85;21219;-78
2021/03/20 09:47:53;;;;;;;2.40;1.70;;;;;;;31.39;20.29;159429.66;1637366;85;21211;-79
2021/03/20 09:50:32;;;;;;;2.22;1.55;;;;;;;31.28;20.74;159400.31;1657204;83;21291;-79
2021/03/20 09:53:16;;;;;;;3.03;1.40;;;;;;;31.39;20.04;159428.28;1657054;85;21296;-80
2021/03/20 09:55:51;;;;;;;1.85;1.32;;;;;;;31.64;20.17;159496.39;1657262;85;21228;-77
2021/03/20 09:58:31;;;;;;;4.00;1.70;;;;;;;32.24;19.50;159656.50;1657426;85;21244;-82
2021/03/20 10:01:08;;;;;;;2.55;1.40;;;;;;;32.84;20.30;159818.06;1657612;85;21239;-81
2021/03/20 10:03:56;;;;;;;3.60;1.50;;;;;;;33.90;19.51;160101.30;1657407;85;21208;-82
2021/03/20 10:06:35;;;;;;;3.17;1.47;;;;;;;35.01;18.44;160400.75;1636612;85;21270;-82
2021/03/20 10:09:19;;;;;;;2.58;1.47;;;;;;;36.24;17.80;160732.58;1660150;84;21253;-85
2021/03/20 10:12:03;;;;;;;2.67;1.80;;;;;;;36.86;17.44;160898.61;1655115;84;21789;-82
2021/03/20 10:14:40;;;;;;;2.50;1.90;;;;;;;37.24;17.28;161001.73;1644492;85;21284;-81
2021/03/20 10:17:22;;;;;;;2.87;1.70;;;;;;;37.71;16.74;161126.34;1629554;85;21909;-82
2021/03/20 10:20:14;;;;;;;4.20;1.67;;;;;;;38.32;15.93;161291.22;1654701;84;21223;-82
2021/03/20 10:22:59;;;;;;;4.62;2.00;;;;;;;38.50;16.55;161340.81;1654851;84;21266;-84
2021/03/20 10:25:33;;;;;;;3.20;1.62;;;;;;;39.52;17.14;161615.78;1662639;84;21755;-87
2021/03/20 10:28:07;;;;;;;5.67;2.15;;;;;;;40.82;17.16;161966.05;1659009;84;21707;-86
2021/03/20 10:30:40;;;;;;;4.08;1.90;;;;;;;41.33;15.18;162104.34;1655297;85;22035;-81
2021/03/20 10:33:27;;;;;;;3.27;1.60;;;;;;;40.84;15.65;161970.06;1657273;85;21722;-83
2021/03/20 10:36:30;;;;;;;3.27;1.70;;;;;;;40.72;15.50;161939.16;1657133;85;21255;-82
2021/03/20 10:39:04;;;;;;;3.02;1.50;;;;;;;40.35;15.25;161839.86;1664887;84;21204;-84
2021/03/20 10:41:38;;;;;;;2.77;1.80;;;;;;;40.31;15.89;161829.06;1633119;85;21232;-83
2021/03/20 10:44:25;;;;;;;3.70;1.80;;;;;;;40.69;15.87;161929.72;1656664;85;21208;-81
2021/03/20 10:47:08;;;;;;;4.42;1.70;;;;;;;41.24;15.65;162080.20;1660660;84;21235;-84
2021/03/20 10:49:46;;;;;;;5.65;2.27;;;;;;;41.83;15.38;162237.31;1652007;84;21211;-79
2021/03/20 10:52:24;;;;;;;3.25;1.60;;;;;;;42.39;15.17;162390.53;1659888;85;21212;-82
2021/03/20 10:54:58;;;;;;;2.67;1.80;;;;;;;42.52;14.87;162424.14;1660132;84;21263;-80
2021/03/20 10:57:31;;;;;;;2.40;1.80;;;;;;;42.34;14.38;162377.13;1655361;85;21858;-78
2021/03/20 11:00:17;;;;;;;2.75;1.55;;;;;;;42.35;15.02;162378.44;1663688;84;21772;-78
2021/03/20 11:02:50;;;;;;;1.82;1.40;;;;;;;42.63;14.49;162453.69;1650717;84;21299;-82
2021/03/20 11:05:30;;;;;;;2.52;1.65;;;;;;;42.25;14.32;162352.84;1707549;81;21326;-82
2021/03/20 11:08:23;;;;;;;2.30;1.80;;;;;;;41.26;14.48;162085.53;1669692;84;21882;-83
2021/03/20 11:11:13;;;;;;;2.00;1.57;;;;;;;40.30;14.73;161826.38;1671727;83;21347;-80
2021/03/20 11:13:49;;;;;;;2.67;1.50;;;;;;;39.60;15.18;161635.84;1711174;82;21341;-82
2021/03/20 11:16:25;;;;;;;2.42;1.50;;;;;;;39.71;15.39;161665.34;1675900;83;21173;-81
2021/03/20 11:19:09;;;;;;;2.85;2.00;;;;;;;40.19;15.38;161795.55;1649650;86;21200;-79
2021/03/20 11:21:46;;;;;;;2.50;1.77;;;;;;;40.87;14.99;161978.13;1712644;82;21187;-82
2021/03/20 11:24:34;;;;;;;2.95;2.17;;;;;;;41.68;14.61;162197.02;1687744;83;21363;-83
2021/03/20 11:27:22;;;;;;;2.22;1.77;;;;;;;41.76;14.29;162218.53;1650188;85;21180;-83
2021/03/20 11:30:01;;;;;;;3.60;1.90;;;;;;;40.48;14.34;161874.75;1713876;81;21388;-83
2021/03/20 11:32:37;;;;;;;4.78;2.20;;;;;;;39.84;14.83;161701.59;1712760;81;21178;-82
2021/03/20 11:35:24;;;;;;;3.37;2.02;;;;;;;39.93;15.44;161724.47;1712142;81;21171;-81
2021/03/20 11:38:03;;;;;;;2.25;1.77;;;;;;;40.71;15.29;161936.47;1713325;81;21623;-80
2021/03/20 11:40:38;;;;;;;2.25;1.90;;;;;;;41.67;15.10;162194.37;1712767;81;21344;-86
2021/03/20 11:43:31;;;;;;;4.33;2.05;;;;;;;41.88;14.65;162250.77;1714264;81;21832;-86
2021/03/20 11:46:14;;;;;;;3.55;2.22;;;;;;;42.19;15.04;162335.39;1712704;81;21372;-84
2021/03/20 11:49:08;;;;;;;4.35;2.22;;;;;;;42.70;14.14;162473.84;1716895;81;21387;-84
2021/03/20 11:51:46;;;;;;;2.85;2.12;;;;;;;42.82;14.44;162504.78;1715410;81;21329;-82
2021/03/20 11:54:36;;;;;;;5.35;2.17;;;;;;;43.74;14.32;162753.56;1710954;82;21309;-83
2021/03/20 11:57:40;;;;;;;2.33;1.80;;;;;;;43.37;14.26;162654.02;1711958;82;21345;-80
2021/03/20 12:00:39;;;;;;;3.00;1.95;;;;;;;42.63;14.25;162453.69;1674439;84;21953;-80
2021/03/20 12:03:25;;;;;;;2.02;1.80;;;;;;;42.47;14.39;162412.05;1694361;82;21247;-79
2021/03/20 12:06:20;;;;;;;6.55;1.70;;;;;;;41.98;14.41;162280.36;1693635;82;21215;-81
2021/03/20 12:09:02;;;;;;;2.42;1.75;;;;;;;41.50;14.60;162148.66;1683686;83;21220;-81
2021/03/20 12:11:48;;;;;;;2.55;1.95;;;;;;;40.02;14.69;161749.91;1718733;81;21182;-78
2021/03/20 12:14:44;;;;;;;3.25;1.92;;;;;;;38.41;15.31;161315.33;1717542;81;21174;-79
2021/03/20 12:17:27;;;;;;;3.35;1.90;;;;;;;37.16;16.20;160980.33;1719091;81;21206;-79
2021/03/20 12:20:08;;;;;;;6.78;2.10;;;;;;;35.57;16.71;160551.97;1684155;83;21354;-80
2021/03/20 12:22:48;;;;;;;;;;;;;;;34.51;17.15;160267.00;1721893;81;21376;-80
2021/03/20 12:25:41;;;;;;;3.42;2.30;;;;;;;33.34;17.96;159952.97;1718051;81;20535;-78
2021/03/20 12:28:44;;;;;;;3.95;2.25;;;;;;;32.79;18.52;159803.39;1719871;81;21206;-78
2021/03/20 12:31:24;;;;;;;4.28;2.87;;;;;;;32.29;18.38;159669.86;1723202;81;21316;-76
2021/03/20 12:34:00;;;;;;;;;;;;;;;31.91;19.01;159567.08;1722705;81;21210;-78
2021/03/20 12:36:43;;;;;;;3.45;2.35;;;;;;;31.42;19.18;159437.61;1715931;81;20215;-79
2021/03/20 12:39:19;;;;;;;4.75;2.62;;;;;;;31.14;19.57;159360.30;1682528;83;21377;-83
2021/03/20 12:41:54;;;;;;;6.60;2.60;;;;;;;30.59;20.26;159214.94;1685697;84;21346;-77